createdAt,value
2018-11-22T00:00:53.054Z,0
2018-11-22T00:01:54.624Z,0
2018-11-22T00:02:56.172Z,0
2018-11-22T00:03:57.980Z,0
2018-11-22T00:04:59.529Z,0
2018-11-22T00:06:01.127Z,0
2018-11-22T00:07:02.910Z,0
2018-11-22T00:08:04.450Z,0
2018-11-22T00:09:06.219Z,0
2018-11-22T00:10:07.791Z,0
2018-11-22T00:11:09.450Z,0
2018-11-22T00:12:10.979Z,0
2018-11-22T00:13:12.857Z,0
2018-11-22T00:14:14.409Z,0
2018-11-22T00:15:16.082Z,0
2018-11-22T00:16:17.625Z,0
2018-11-22T00:17:19.395Z,0
2018-11-22T00:18:20.902Z,0
2018-11-22T00:19:22.708Z,0
2018-11-22T00:20:24.232Z,0
2018-11-22T00:21:25.804Z,0
2018-11-22T00:22:27.221Z,0
2018-11-22T00:23:29.045Z,0
2018-11-22T00:24:30.614Z,0
2018-11-22T00:25:32.383Z,0
2018-11-22T00:26:33.959Z,0
2018-11-22T00:27:35.677Z,0
2018-11-22T00:28:37.216Z,0
2018-11-22T00:29:38.920Z,0
2018-11-22T00:30:40.495Z,0
2018-11-22T00:31:42.064Z,0
2018-11-22T00:32:43.877Z,0
2018-11-22T00:33:45.461Z,0
2018-11-22T00:34:47.098Z,0
2018-11-22T00:35:48.990Z,0
2018-11-22T00:36:50.511Z,0
2018-11-22T00:37:52.062Z,0
2018-11-22T00:38:55.888Z,0
2018-11-22T00:39:57.464Z,0
2018-11-22T00:40:59.083Z,0
2018-11-22T00:42:01.953Z,0
2018-11-22T00:43:03.481Z,0
2018-11-22T00:44:05.033Z,0
2018-11-22T00:45:06.866Z,0
2018-11-22T00:46:08.544Z,0
2018-11-22T00:47:10.056Z,0
2018-11-22T00:48:11.833Z,0
2018-11-22T00:49:13.397Z,0
2018-11-22T00:50:14.964Z,0
2018-11-22T00:51:16.774Z,0
2018-11-22T00:52:18.304Z,0
2018-11-22T00:53:20.026Z,0
2018-11-22T00:54:21.608Z,0
2018-11-22T00:55:23.185Z,0
2018-11-22T00:56:24.718Z,0
2018-11-22T00:57:26.289Z,0
2018-11-22T00:58:28.059Z,0
2018-11-22T00:59:29.603Z,0
2018-11-22T01:00:31.283Z,0
2018-11-22T01:01:32.964Z,0
2018-11-22T01:02:42.492Z,0
2018-11-22T01:03:43.894Z,0
2018-11-22T01:04:45.722Z,0
2018-11-22T01:05:47.326Z,0
2018-11-22T01:06:49.098Z,0
2018-11-22T01:07:50.695Z,0
2018-11-22T01:08:58.074Z,0
2018-11-22T01:09:59.700Z,0
2018-11-22T01:11:01.122Z,0
2018-11-22T01:12:02.526Z,0
2018-11-22T01:13:15.728Z,0
2018-11-22T01:14:18.560Z,0
2018-11-22T01:15:19.954Z,0
2018-11-22T01:16:21.456Z,0
2018-11-22T01:17:22.863Z,0
2018-11-22T01:18:24.259Z,0
2018-11-22T01:19:25.773Z,0
2018-11-22T01:20:27.233Z,0
2018-11-22T01:21:28.861Z,0
2018-11-22T01:22:30.265Z,0
2018-11-22T01:23:31.670Z,0
2018-11-22T01:24:33.201Z,0
2018-11-22T01:25:34.572Z,0
2018-11-22T01:26:35.971Z,0
2018-11-22T01:27:37.505Z,0
2018-11-22T01:28:38.892Z,0
2018-11-22T01:29:40.415Z,0
2018-11-22T01:30:41.801Z,0
2018-11-22T01:31:43.468Z,0
2018-11-22T01:32:44.868Z,0
2018-11-22T01:33:46.556Z,0
2018-11-22T01:34:47.975Z,0
2018-11-22T01:35:49.643Z,0
2018-11-22T01:36:51.035Z,0
2018-11-22T01:37:52.729Z,0
2018-11-22T01:38:54.132Z,0
2018-11-22T01:39:55.810Z,0
2018-11-22T01:40:57.209Z,0
2018-11-22T01:41:58.900Z,0
2018-11-22T01:43:00.298Z,0
2018-11-22T01:44:01.984Z,0
2018-11-22T01:45:03.382Z,0
2018-11-22T01:46:05.072Z,0
2018-11-22T01:47:06.467Z,0
2018-11-22T01:48:07.872Z,0
2018-11-22T01:49:09.393Z,0
2018-11-22T01:50:10.782Z,0
2018-11-22T01:51:12.183Z,0
2018-11-22T01:52:13.713Z,0
2018-11-22T01:53:15.112Z,0
2018-11-22T01:54:16.797Z,0
2018-11-22T01:55:18.210Z,0
2018-11-22T01:56:19.890Z,0
2018-11-22T01:57:21.279Z,0
2018-11-22T01:58:22.681Z,0
2018-11-22T01:59:24.203Z,0
2018-11-22T02:00:25.605Z,0
2018-11-22T02:01:27.014Z,0
2018-11-22T02:02:28.553Z,0
2018-11-22T02:03:29.943Z,0
2018-11-22T02:04:31.632Z,0
2018-11-22T02:05:33.028Z,0
2018-11-22T02:06:34.699Z,0
2018-11-22T02:07:36.094Z,0
2018-11-22T02:08:37.784Z,0
2018-11-22T02:09:39.186Z,0
2018-11-22T02:10:40.870Z,0
2018-11-22T02:11:42.271Z,0
2018-11-22T02:12:43.752Z,0
2018-11-22T02:13:45.149Z,0
2018-11-22T02:14:46.842Z,0
2018-11-22T02:15:48.253Z,0
2018-11-22T02:16:49.920Z,0
2018-11-22T02:17:51.321Z,0
2018-11-22T02:18:53.007Z,0
2018-11-22T02:19:54.403Z,0
2018-11-22T02:20:56.096Z,0
2018-11-22T02:21:57.493Z,0
2018-11-22T02:22:58.897Z,0
2018-11-22T02:24:00.421Z,0
2018-11-22T02:25:01.816Z,0
2018-11-22T02:26:03.215Z,0
2018-11-22T02:27:04.735Z,0
2018-11-22T02:28:06.131Z,0
2018-11-22T02:29:07.528Z,0
2018-11-22T02:30:09.059Z,0
2018-11-22T02:31:10.470Z,0
2018-11-22T02:32:11.873Z,0
2018-11-22T02:33:13.383Z,0
2018-11-22T02:34:14.778Z,0
2018-11-22T02:35:16.463Z,0
2018-11-22T02:36:17.884Z,0
2018-11-22T02:37:19.581Z,0
2018-11-22T02:38:20.976Z,0
2018-11-22T02:39:22.648Z,0
2018-11-22T02:40:24.030Z,0
2018-11-22T02:41:25.515Z,0
2018-11-22T02:42:26.930Z,0
2018-11-22T02:43:28.602Z,0
2018-11-22T02:44:29.994Z,0
2018-11-22T02:45:31.689Z,0
2018-11-22T02:46:33.088Z,0
2018-11-22T02:47:34.788Z,0
2018-11-22T02:48:36.193Z,0
2018-11-22T02:49:37.590Z,0
2018-11-22T02:50:39.094Z,0
2018-11-22T02:51:40.494Z,0
2018-11-22T02:52:41.897Z,0
2018-11-22T02:53:43.415Z,0
2018-11-22T02:54:44.807Z,0
2018-11-22T02:55:46.217Z,0
2018-11-22T02:56:47.737Z,0
2018-11-22T02:57:49.137Z,0
2018-11-22T02:58:50.545Z,0
2018-11-22T02:59:52.076Z,0
2018-11-22T03:00:53.470Z,0
2018-11-22T03:01:54.867Z,0
2018-11-22T03:02:56.380Z,0
2018-11-22T03:03:57.778Z,0
2018-11-22T03:04:59.263Z,0
2018-11-22T03:06:00.661Z,0
2018-11-22T03:07:02.345Z,0
2018-11-22T03:08:03.744Z,0
2018-11-22T03:09:05.227Z,0
2018-11-22T03:10:06.704Z,0
2018-11-22T03:11:08.310Z,0
2018-11-22T03:12:09.718Z,0
2018-11-22T03:13:11.402Z,0
2018-11-22T03:14:12.800Z,0
2018-11-22T03:15:14.498Z,0
2018-11-22T03:16:15.896Z,0
2018-11-22T03:17:17.569Z,0
2018-11-22T03:18:18.984Z,0
2018-11-22T03:19:20.384Z,0
2018-11-22T03:20:22.022Z,0
2018-11-22T03:21:23.425Z,0
2018-11-22T03:22:24.818Z,0
2018-11-22T03:23:26.420Z,0
2018-11-22T03:24:27.814Z,0
2018-11-22T03:25:29.233Z,0
2018-11-22T03:26:30.744Z,0
2018-11-22T03:27:32.138Z,0
2018-11-22T03:28:33.546Z,0
2018-11-22T03:29:35.065Z,0
2018-11-22T03:30:36.469Z,0
2018-11-22T03:31:37.947Z,0
2018-11-22T03:32:39.356Z,0
2018-11-22T03:33:41.032Z,0
2018-11-22T03:34:42.430Z,0
2018-11-22T03:35:44.113Z,0
2018-11-22T03:36:45.514Z,0
2018-11-22T03:37:46.997Z,0
2018-11-22T03:38:48.397Z,0
2018-11-22T03:39:50.078Z,0
2018-11-22T03:40:51.473Z,0
2018-11-22T03:41:52.980Z,0
2018-11-22T03:42:54.381Z,0
2018-11-22T03:43:56.042Z,0
2018-11-22T03:44:57.447Z,0
2018-11-22T03:45:58.839Z,0
2018-11-22T03:47:00.367Z,0
2018-11-22T03:48:01.765Z,0
2018-11-22T03:49:03.163Z,0
2018-11-22T03:50:04.688Z,0
2018-11-22T03:51:06.089Z,0
2018-11-22T03:52:07.484Z,0
2018-11-22T03:53:09.015Z,0
2018-11-22T03:54:10.409Z,0
2018-11-22T03:55:11.815Z,0
2018-11-22T03:56:13.375Z,0
2018-11-22T03:57:14.767Z,0
2018-11-22T03:58:16.424Z,0
2018-11-22T03:59:17.822Z,0
2018-11-22T04:00:19.505Z,0
2018-11-22T04:01:20.910Z,0
2018-11-22T04:02:22.586Z,0
2018-11-22T04:03:24.020Z,0
2018-11-22T04:04:25.404Z,0
2018-11-22T04:05:26.921Z,0
2018-11-22T04:06:28.318Z,0
2018-11-22T04:07:29.719Z,0
2018-11-22T04:08:31.229Z,0
2018-11-22T04:09:32.634Z,0
2018-11-22T04:10:34.064Z,0
2018-11-22T04:11:35.553Z,0
2018-11-22T04:12:36.958Z,0
2018-11-22T04:13:38.435Z,0
2018-11-22T04:14:39.828Z,0
2018-11-22T04:15:41.312Z,0
2018-11-22T04:16:42.711Z,0
2018-11-22T04:17:44.194Z,0
2018-11-22T04:18:45.595Z,0
2018-11-22T04:19:46.994Z,0
2018-11-22T04:20:48.517Z,0
2018-11-22T04:21:49.917Z,0
2018-11-22T04:22:51.316Z,0
2018-11-22T04:23:52.836Z,0
2018-11-22T04:24:54.235Z,0
2018-11-22T04:25:55.635Z,0
2018-11-22T04:26:57.158Z,0
2018-11-22T04:27:58.589Z,0
2018-11-22T04:28:59.961Z,0
2018-11-22T04:30:01.521Z,0
2018-11-22T04:31:02.899Z,0
2018-11-22T04:32:04.293Z,0
2018-11-22T04:33:05.805Z,0
2018-11-22T04:34:07.201Z,0
2018-11-22T04:35:08.594Z,0
2018-11-22T04:36:10.263Z,0
2018-11-22T04:37:11.650Z,0
2018-11-22T04:38:13.215Z,0
2018-11-22T04:39:14.609Z,0
2018-11-22T04:40:16.032Z,0
2018-11-22T04:41:17.538Z,0
2018-11-22T04:42:18.933Z,0
2018-11-22T04:43:20.527Z,0
2018-11-22T04:44:22.114Z,0
2018-11-22T04:45:23.542Z,0
2018-11-22T04:46:25.182Z,0
2018-11-22T04:47:26.674Z,0
2018-11-22T04:48:28.274Z,0
2018-11-22T04:49:29.703Z,0
2018-11-22T04:50:31.393Z,0
2018-11-22T04:51:32.998Z,0
2018-11-22T04:52:38.441Z,0
2018-11-22T04:53:39.841Z,0
2018-11-22T04:54:41.378Z,0
2018-11-22T04:55:42.777Z,0
2018-11-22T04:56:44.172Z,0
2018-11-22T04:57:45.699Z,0
2018-11-22T04:58:47.098Z,0
2018-11-22T04:59:48.499Z,0
2018-11-22T05:00:50.019Z,0
2018-11-22T05:01:51.415Z,0
2018-11-22T05:02:52.820Z,0
2018-11-22T05:03:54.339Z,0
2018-11-22T05:04:55.738Z,0
2018-11-22T05:05:57.132Z,0
2018-11-22T05:06:58.661Z,0
2018-11-22T05:08:00.082Z,0
2018-11-22T05:09:01.484Z,0
2018-11-22T05:10:02.986Z,0
2018-11-22T05:11:04.383Z,0
2018-11-22T05:12:05.861Z,0
2018-11-22T05:13:07.260Z,0
2018-11-22T05:14:08.742Z,0
2018-11-22T05:15:10.139Z,0
2018-11-22T05:16:11.543Z,0
2018-11-22T05:17:13.064Z,0
2018-11-22T05:18:14.540Z,0
2018-11-22T05:19:15.931Z,0
2018-11-22T05:20:17.591Z,0
2018-11-22T05:21:18.988Z,0
2018-11-22T05:22:20.472Z,0
2018-11-22T05:23:21.870Z,0
2018-11-22T05:24:23.353Z,0
2018-11-22T05:25:24.747Z,0
2018-11-22T05:26:26.236Z,0
2018-11-22T05:27:27.631Z,0
2018-11-22T05:28:29.116Z,0
2018-11-22T05:29:30.511Z,0
2018-11-22T05:30:31.993Z,0
2018-11-22T05:31:33.393Z,0
2018-11-22T05:32:35.365Z,0
2018-11-22T05:33:36.267Z,0
2018-11-22T05:34:37.755Z,0
2018-11-22T05:35:39.148Z,0
2018-11-22T05:36:40.639Z,0
2018-11-22T05:37:42.034Z,0
2018-11-22T05:38:43.518Z,0
2018-11-22T05:39:44.914Z,0
2018-11-22T05:40:46.399Z,0
2018-11-22T05:41:47.795Z,0
2018-11-22T05:42:49.278Z,0
2018-11-22T05:43:50.675Z,0
2018-11-22T05:44:52.158Z,0
2018-11-22T05:45:53.558Z,0
2018-11-22T05:46:54.958Z,0
2018-11-22T05:47:56.499Z,0
2018-11-22T05:48:57.904Z,0
2018-11-22T05:49:59.295Z,0
2018-11-22T05:51:00.801Z,0
2018-11-22T05:52:02.201Z,0
2018-11-22T05:53:03.604Z,0
2018-11-22T05:54:05.123Z,0
2018-11-22T05:55:06.518Z,0
2018-11-22T05:56:07.918Z,0
2018-11-22T05:57:09.444Z,0
2018-11-22T05:58:10.844Z,0
2018-11-22T05:59:12.240Z,0
2018-11-22T06:00:13.770Z,0
2018-11-22T06:01:16.399Z,0
2018-11-22T06:02:16.648Z,0
2018-11-22T06:03:18.041Z,0
2018-11-22T06:04:19.529Z,0
2018-11-22T06:05:20.930Z,0
2018-11-22T06:06:22.410Z,0
2018-11-22T06:07:23.809Z,0
2018-11-22T06:08:25.291Z,0
2018-11-22T06:09:26.685Z,0
2018-11-22T06:10:28.172Z,0
2018-11-22T06:11:29.569Z,0
2018-11-22T06:12:31.053Z,0
2018-11-22T06:13:32.449Z,0
2018-11-22T06:14:33.942Z,0
2018-11-22T06:15:35.333Z,0
2018-11-22T06:16:36.733Z,0
2018-11-22T06:17:38.253Z,0
2018-11-22T06:18:39.647Z,0
2018-11-22T06:19:41.047Z,0
2018-11-22T06:20:42.575Z,0
2018-11-22T06:21:43.977Z,0
2018-11-22T06:22:45.457Z,0
2018-11-22T06:23:46.850Z,0
2018-11-22T06:24:48.338Z,0
2018-11-22T06:25:49.736Z,0
2018-11-22T06:26:51.221Z,0
2018-11-22T06:27:52.613Z,0
2018-11-22T06:28:54.099Z,0
2018-11-22T06:29:55.494Z,0
2018-11-22T06:30:56.981Z,0
2018-11-22T06:31:58.377Z,0
2018-11-22T06:32:59.774Z,0
2018-11-22T06:34:01.297Z,0
2018-11-22T06:35:02.701Z,0
2018-11-22T06:36:04.101Z,0
2018-11-22T06:37:05.625Z,0
2018-11-22T06:38:07.018Z,4
2018-11-22T06:39:08.413Z,4
2018-11-22T06:40:09.941Z,0
2018-11-22T06:41:11.345Z,0
2018-11-22T06:42:12.743Z,0
2018-11-22T06:43:14.264Z,4
2018-11-22T06:44:16.059Z,0
2018-11-22T06:45:17.456Z,4
2018-11-22T06:46:18.998Z,4
2018-11-22T06:47:20.396Z,0
2018-11-22T06:48:21.879Z,4
2018-11-22T06:49:23.282Z,4
2018-11-22T06:50:24.756Z,4
2018-11-22T06:51:26.155Z,4
2018-11-22T06:52:27.638Z,4
2018-11-22T06:53:29.035Z,8
2018-11-22T06:54:30.518Z,8
2018-11-22T06:55:31.916Z,12
2018-11-22T06:56:33.400Z,12
2018-11-22T06:57:34.802Z,12
2018-11-22T06:58:36.198Z,12
2018-11-22T06:59:37.723Z,12
2018-11-22T07:00:39.501Z,12
2018-11-22T07:01:40.892Z,16
2018-11-22T07:02:42.460Z,16
2018-11-22T07:03:43.862Z,20
2018-11-22T07:04:45.331Z,24
2018-11-22T07:05:46.731Z,28
2018-11-22T07:06:48.215Z,28
2018-11-22T07:07:49.610Z,32
2018-11-22T07:08:51.096Z,36
2018-11-22T07:09:52.495Z,36
2018-11-22T07:10:53.984Z,40
2018-11-22T07:11:55.376Z,40
2018-11-22T07:12:56.861Z,48
2018-11-22T07:13:58.251Z,52
2018-11-22T07:14:59.740Z,56
2018-11-22T07:16:01.137Z,60
2018-11-22T07:17:02.620Z,64
2018-11-22T07:18:04.020Z,68
2018-11-22T07:19:05.505Z,68
2018-11-22T07:20:06.900Z,68
2018-11-22T07:21:08.380Z,72
2018-11-22T07:22:09.787Z,76
2018-11-22T07:23:11.262Z,76
2018-11-22T07:24:12.664Z,76
2018-11-22T07:25:14.068Z,84
2018-11-22T07:26:15.583Z,84
2018-11-22T07:27:17.057Z,92
2018-11-22T07:28:18.464Z,88
2018-11-22T07:29:20.114Z,88
2018-11-22T07:30:21.514Z,84
2018-11-22T07:31:22.914Z,84
2018-11-22T07:32:24.433Z,92
2018-11-22T07:33:25.834Z,100
2018-11-22T07:34:27.233Z,104
2018-11-22T07:35:28.756Z,116
2018-11-22T07:36:30.155Z,132
2018-11-22T07:37:31.556Z,140
2018-11-22T07:38:34.101Z,136
2018-11-22T07:39:35.501Z,140
2018-11-22T07:40:36.982Z,136
2018-11-22T07:41:38.376Z,136
2018-11-22T07:42:39.860Z,136
2018-11-22T07:43:41.261Z,132
2018-11-22T07:44:42.743Z,144
2018-11-22T07:45:44.147Z,144
2018-11-22T07:46:45.624Z,144
2018-11-22T07:47:47.026Z,148
2018-11-22T07:48:48.425Z,156
2018-11-22T07:49:49.945Z,156
2018-11-22T07:50:51.343Z,152
2018-11-22T07:51:52.745Z,156
2018-11-22T07:52:56.018Z,164
2018-11-22T07:53:55.665Z,172
2018-11-22T07:54:57.070Z,176
2018-11-22T07:55:58.588Z,180
2018-11-22T07:56:59.985Z,192
2018-11-22T07:58:01.390Z,204
2018-11-22T07:59:02.911Z,204
2018-11-22T08:00:04.307Z,208
2018-11-22T08:01:05.708Z,216
2018-11-22T08:02:07.230Z,220
2018-11-22T08:03:08.848Z,208
2018-11-22T08:04:10.028Z,216
2018-11-22T08:05:11.551Z,232
2018-11-22T08:06:12.952Z,236
2018-11-22T08:07:14.357Z,228
2018-11-22T08:08:15.874Z,216
2018-11-22T08:09:17.277Z,196
2018-11-22T08:10:18.753Z,184
2018-11-22T08:11:20.155Z,192
2018-11-22T08:12:25.866Z,200
2018-11-22T08:13:23.034Z,192
2018-11-22T08:14:24.516Z,188
2018-11-22T08:15:25.914Z,204
2018-11-22T08:16:27.397Z,240
2018-11-22T08:17:28.797Z,244
2018-11-22T08:18:30.278Z,224
2018-11-22T08:19:31.679Z,228
2018-11-22T08:20:33.160Z,256
2018-11-22T08:21:38.325Z,272
2018-11-22T08:22:36.040Z,264
2018-11-22T08:23:37.440Z,264
2018-11-22T08:24:38.919Z,268
2018-11-22T08:25:40.319Z,268
2018-11-22T08:26:41.801Z,248
2018-11-22T08:27:43.206Z,244
2018-11-22T08:28:44.683Z,240
2018-11-22T08:29:46.079Z,240
2018-11-22T08:30:47.563Z,240
2018-11-22T08:31:48.964Z,236
2018-11-22T08:32:52.715Z,248
2018-11-22T08:33:51.845Z,276
2018-11-22T08:34:53.324Z,288
2018-11-22T08:35:54.723Z,288
2018-11-22T08:36:56.204Z,292
2018-11-22T08:37:57.604Z,300
2018-11-22T08:38:59.007Z,312
2018-11-22T08:40:00.527Z,320
2018-11-22T08:41:01.934Z,316
2018-11-22T08:42:03.411Z,316
2018-11-22T08:43:04.808Z,324
2018-11-22T08:44:06.287Z,336
2018-11-22T08:45:07.712Z,340
2018-11-22T08:46:09.375Z,344
2018-11-22T08:47:12.219Z,348
2018-11-22T08:48:12.257Z,340
2018-11-22T08:49:13.656Z,320
2018-11-22T08:50:15.142Z,324
2018-11-22T08:51:16.535Z,344
2018-11-22T08:52:18.018Z,352
2018-11-22T08:53:19.417Z,348
2018-11-22T08:54:20.815Z,348
2018-11-22T08:55:22.338Z,340
2018-11-22T08:56:23.737Z,344
2018-11-22T08:57:25.141Z,360
2018-11-22T08:58:26.663Z,376
2018-11-22T08:59:28.061Z,388
2018-11-22T09:00:29.542Z,388
2018-11-22T09:01:30.942Z,352
2018-11-22T09:02:32.422Z,340
2018-11-22T09:03:33.823Z,356
2018-11-22T09:04:35.303Z,364
2018-11-22T09:05:36.707Z,360
2018-11-22T09:06:38.183Z,348
2018-11-22T09:07:39.576Z,384
2018-11-22T09:08:41.064Z,428
2018-11-22T09:09:42.456Z,448
2018-11-22T09:10:43.946Z,456
2018-11-22T09:11:45.345Z,460
2018-11-22T09:12:46.824Z,476
2018-11-22T09:13:48.220Z,508
2018-11-22T09:14:49.620Z,536
2018-11-22T09:15:51.146Z,532
2018-11-22T09:16:52.549Z,528
2018-11-22T09:17:53.946Z,540
2018-11-22T09:18:55.473Z,556
2018-11-22T09:19:56.869Z,560
2018-11-22T09:20:58.264Z,556
2018-11-22T09:21:59.786Z,516
2018-11-22T09:23:01.185Z,492
2018-11-22T09:24:02.582Z,512
2018-11-22T09:25:04.113Z,552
2018-11-22T09:26:05.511Z,584
2018-11-22T09:27:06.998Z,596
2018-11-22T09:28:08.394Z,612
2018-11-22T09:29:09.789Z,604
2018-11-22T09:30:11.312Z,536
2018-11-22T09:31:12.708Z,492
2018-11-22T09:32:14.103Z,500
2018-11-22T09:33:15.634Z,520
2018-11-22T09:34:17.030Z,540
2018-11-22T09:35:18.553Z,560
2018-11-22T09:36:19.875Z,564
2018-11-22T09:37:21.394Z,548
2018-11-22T09:38:22.789Z,556
2018-11-22T09:39:24.277Z,564
2018-11-22T09:40:25.921Z,576
2018-11-22T09:41:27.317Z,608
2018-11-22T09:42:28.714Z,644
2018-11-22T09:43:30.241Z,668
2018-11-22T09:44:31.638Z,692
2018-11-22T09:45:33.123Z,708
2018-11-22T09:46:34.519Z,716
2018-11-22T09:47:36.004Z,736
2018-11-22T09:48:37.456Z,752
2018-11-22T09:49:38.883Z,748
2018-11-22T09:51:42.175Z,664
2018-11-22T09:52:43.572Z,624
2018-11-22T09:53:45.057Z,628
2018-11-22T09:54:46.453Z,668
2018-11-22T09:55:47.939Z,668
2018-11-22T09:56:49.334Z,616
2018-11-22T09:57:50.817Z,584
2018-11-22T09:58:52.216Z,644
2018-11-22T09:59:53.699Z,692
2018-11-22T10:00:55.097Z,668
2018-11-22T10:01:56.580Z,628
2018-11-22T10:02:58.042Z,604
2018-11-22T10:03:59.460Z,524
2018-11-22T10:05:00.983Z,480
2018-11-22T10:06:02.341Z,504
2018-11-22T10:07:03.736Z,468
2018-11-22T10:08:05.222Z,448
2018-11-22T10:09:06.664Z,412
2018-11-22T10:10:08.317Z,396
2018-11-22T10:11:09.716Z,408
2018-11-22T10:12:11.188Z,416
2018-11-22T10:13:12.586Z,420
2018-11-22T10:14:13.987Z,436
2018-11-22T10:15:15.508Z,448
2018-11-22T10:16:16.906Z,472
2018-11-22T10:17:18.309Z,500
2018-11-22T10:18:19.832Z,556
2018-11-22T10:19:21.227Z,628
2018-11-22T10:20:22.620Z,616
2018-11-22T10:21:24.153Z,680
2018-11-22T10:22:25.609Z,656
2018-11-22T10:23:27.034Z,672
2018-11-22T10:24:28.467Z,688
2018-11-22T10:25:29.914Z,720
2018-11-22T10:26:31.308Z,708
2018-11-22T10:27:32.795Z,736
2018-11-22T10:28:34.188Z,788
2018-11-22T10:29:35.588Z,864
2018-11-22T10:30:37.115Z,916
2018-11-22T10:31:38.548Z,1072
2018-11-22T10:32:39.876Z,1196
2018-11-22T10:33:41.437Z,1228
2018-11-22T10:34:42.838Z,1112
2018-11-22T10:35:44.238Z,1052
2018-11-22T10:36:45.658Z,1092
2018-11-22T10:37:47.099Z,1184
2018-11-22T10:38:48.421Z,1204
2018-11-22T10:39:49.877Z,1148
2018-11-22T10:40:51.272Z,1024
2018-11-22T10:41:52.672Z,920
2018-11-22T10:42:54.197Z,824
2018-11-22T10:43:55.601Z,808
2018-11-22T10:44:56.997Z,796
2018-11-22T10:45:58.565Z,760
2018-11-22T10:46:59.967Z,760
2018-11-22T10:48:01.607Z,764
2018-11-22T10:49:03.004Z,736
2018-11-22T10:50:04.486Z,712
2018-11-22T10:51:05.887Z,704
2018-11-22T10:52:07.366Z,676
2018-11-22T10:53:08.767Z,640
2018-11-22T10:54:10.164Z,632
2018-11-22T10:55:11.689Z,668
2018-11-22T10:56:13.086Z,652
2018-11-22T10:57:14.481Z,608
2018-11-22T10:58:16.396Z,596
2018-11-22T10:59:17.793Z,596
2018-11-22T11:00:19.190Z,596
2018-11-22T11:01:20.743Z,600
2018-11-22T11:02:22.150Z,628
2018-11-22T11:03:23.621Z,688
2018-11-22T11:04:25.018Z,756
2018-11-22T11:05:26.427Z,780
2018-11-22T11:06:27.945Z,760
2018-11-22T11:07:29.348Z,788
2018-11-22T11:08:30.738Z,784
2018-11-22T11:09:32.265Z,780
2018-11-22T11:10:33.664Z,832
2018-11-22T11:11:35.158Z,876
2018-11-22T11:12:36.556Z,880
2018-11-22T11:13:38.027Z,872
2018-11-22T11:14:39.423Z,876
2018-11-22T11:15:40.823Z,912
2018-11-22T11:16:42.347Z,948
2018-11-22T11:17:43.743Z,968
2018-11-22T11:18:45.144Z,984
2018-11-22T11:19:46.669Z,964
2018-11-22T11:20:48.070Z,928
2018-11-22T11:21:49.465Z,928
2018-11-22T11:22:51.006Z,948
2018-11-22T11:23:52.389Z,812
2018-11-22T11:24:53.809Z,792
2018-11-22T11:25:55.319Z,888
2018-11-22T11:26:56.710Z,872
2018-11-22T11:27:58.109Z,848
2018-11-22T11:28:59.633Z,760
2018-11-22T11:30:01.029Z,704
2018-11-22T11:31:02.426Z,628
2018-11-22T11:32:03.956Z,612
2018-11-22T11:33:05.352Z,580
2018-11-22T11:34:06.834Z,520
2018-11-22T11:35:08.234Z,500
2018-11-22T11:36:09.725Z,512
2018-11-22T11:37:11.122Z,480
2018-11-22T11:38:12.612Z,456
2018-11-22T11:39:14.007Z,452
2018-11-22T11:40:15.528Z,472
2018-11-22T11:41:16.925Z,488
2018-11-22T11:42:18.565Z,496
2018-11-22T11:43:19.964Z,548
2018-11-22T11:44:21.779Z,612
2018-11-22T11:45:23.171Z,640
2018-11-22T11:46:24.573Z,632
2018-11-22T11:47:26.178Z,548
2018-11-22T11:48:27.581Z,520
2018-11-22T11:49:28.980Z,472
2018-11-22T11:50:30.497Z,400
2018-11-22T11:51:31.900Z,392
2018-11-22T11:52:33.299Z,412
2018-11-22T11:53:41.502Z,408
2018-11-22T11:54:36.184Z,436
2018-11-22T11:55:37.580Z,484
2018-11-22T11:56:39.140Z,508
2018-11-22T11:57:40.540Z,484
2018-11-22T11:58:42.021Z,428
2018-11-22T11:59:43.418Z,396
2018-11-22T12:00:44.901Z,352
2018-11-22T12:01:46.299Z,332
2018-11-22T12:02:47.785Z,352
2018-11-22T12:03:49.184Z,392
2018-11-22T12:04:50.662Z,424
2018-11-22T12:05:52.065Z,460
2018-11-22T12:06:53.461Z,476
2018-11-22T12:07:54.984Z,452
2018-11-22T12:08:56.392Z,448
2018-11-22T12:09:57.781Z,408
2018-11-22T12:10:59.306Z,336
2018-11-22T12:12:00.704Z,280
2018-11-22T12:13:02.186Z,272
2018-11-22T12:14:03.584Z,280
2018-11-22T12:15:05.068Z,284
2018-11-22T12:16:06.468Z,272
2018-11-22T12:17:07.862Z,268
2018-11-22T12:18:09.396Z,304
2018-11-22T12:19:10.796Z,320
2018-11-22T12:20:12.194Z,352
2018-11-22T12:21:13.710Z,360
2018-11-22T12:22:15.110Z,380
2018-11-22T12:23:16.558Z,380
2018-11-22T12:24:17.958Z,384
2018-11-22T12:25:19.470Z,400
2018-11-22T12:26:20.874Z,408
2018-11-22T12:27:22.352Z,400
2018-11-22T12:28:23.751Z,384
2018-11-22T12:29:25.233Z,388
2018-11-22T12:30:26.632Z,416
2018-11-22T12:31:28.114Z,472
2018-11-22T12:32:29.516Z,516
2018-11-22T12:33:31.033Z,528
2018-11-22T12:34:32.413Z,516
2018-11-22T12:35:33.805Z,512
2018-11-22T12:36:35.214Z,468
2018-11-22T12:37:43.022Z,468
2018-11-22T12:38:37.971Z,444
2018-11-22T12:39:39.433Z,412
2018-11-22T12:40:40.834Z,408
2018-11-22T12:41:42.267Z,392
2018-11-22T12:42:43.755Z,400
2018-11-22T12:43:45.157Z,444
2018-11-22T12:44:46.550Z,456
2018-11-22T12:45:48.787Z,428
2018-11-22T12:46:49.438Z,432
2018-11-22T12:47:50.838Z,500
2018-11-22T12:48:52.406Z,528
2018-11-22T12:49:53.791Z,452
2018-11-22T12:50:55.191Z,400
2018-11-22T12:51:56.719Z,396
2018-11-22T12:52:58.113Z,416
2018-11-22T12:54:00.005Z,384
2018-11-22T12:55:01.454Z,360
2018-11-22T12:56:02.869Z,356
2018-11-22T12:57:04.266Z,344
2018-11-22T12:58:05.772Z,344
2018-11-22T12:59:07.167Z,348
2018-11-22T13:00:08.651Z,316
2018-11-22T13:01:10.057Z,312
2018-11-22T13:02:18.073Z,324
2018-11-22T13:03:12.972Z,336
2018-11-22T13:04:14.370Z,308
2018-11-22T13:05:15.767Z,288
2018-11-22T13:06:17.296Z,284
2018-11-22T13:07:18.690Z,284
2018-11-22T13:08:20.176Z,276
2018-11-22T13:09:21.580Z,300
2018-11-22T13:10:23.056Z,344
2018-11-22T13:11:24.453Z,360
2018-11-22T13:12:25.942Z,344
2018-11-22T13:13:27.334Z,340
2018-11-22T13:14:28.819Z,360
2018-11-22T13:15:30.215Z,376
2018-11-22T13:16:31.701Z,364
2018-11-22T13:17:33.117Z,364
2018-11-22T13:18:34.581Z,376
2018-11-22T13:19:35.976Z,392
2018-11-22T13:20:37.499Z,396
2018-11-22T13:21:38.862Z,396
2018-11-22T13:22:40.344Z,424
2018-11-22T13:23:41.739Z,428
2018-11-22T13:24:43.225Z,416
2018-11-22T13:25:44.623Z,404
2018-11-22T13:26:46.104Z,420
2018-11-22T13:27:47.500Z,396
2018-11-22T13:28:48.985Z,388
2018-11-22T13:29:50.382Z,384
2018-11-22T13:30:51.868Z,392
2018-11-22T13:31:53.270Z,428
2018-11-22T13:32:54.752Z,448
2018-11-22T13:33:56.145Z,456
2018-11-22T13:34:57.627Z,428
2018-11-22T13:35:59.030Z,408
2018-11-22T13:37:00.561Z,428
2018-11-22T13:38:01.966Z,420
2018-11-22T13:39:03.599Z,408
2018-11-22T13:40:05.001Z,408
2018-11-22T13:41:06.478Z,412
2018-11-22T13:42:07.882Z,416
2018-11-22T13:43:09.356Z,408
2018-11-22T13:44:10.771Z,412
2018-11-22T13:45:12.240Z,428
2018-11-22T13:46:13.645Z,448
2018-11-22T13:47:15.038Z,432
2018-11-22T13:48:16.560Z,428
2018-11-22T13:49:17.957Z,412
2018-11-22T13:50:19.359Z,396
2018-11-22T13:51:20.879Z,384
2018-11-22T13:52:22.277Z,364
2018-11-22T13:53:23.763Z,340
2018-11-22T13:54:25.152Z,316
2018-11-22T13:55:26.643Z,304
2018-11-22T13:56:28.038Z,288
2018-11-22T13:57:29.436Z,276
2018-11-22T13:58:30.964Z,264
2018-11-22T13:59:32.360Z,252
2018-11-22T14:00:33.759Z,244
2018-11-22T14:01:35.285Z,236
2018-11-22T14:02:36.681Z,236
2018-11-22T14:03:38.077Z,236
2018-11-22T14:04:39.608Z,232
2018-11-22T14:05:41.003Z,228
2018-11-22T14:06:42.402Z,228
2018-11-22T14:07:43.925Z,220
2018-11-22T14:08:45.319Z,212
2018-11-22T14:09:46.806Z,204
2018-11-22T14:10:48.201Z,192
2018-11-22T14:11:49.687Z,184
2018-11-22T14:12:51.085Z,184
2018-11-22T14:13:52.484Z,176
2018-11-22T14:14:54.012Z,168
2018-11-22T14:15:55.405Z,164
2018-11-22T14:16:56.802Z,164
2018-11-22T14:17:58.329Z,164
2018-11-22T14:18:59.737Z,164
2018-11-22T14:20:01.136Z,164
2018-11-22T14:21:02.654Z,160
2018-11-22T14:22:04.055Z,160
2018-11-22T14:23:05.451Z,176
2018-11-22T14:24:06.973Z,172
2018-11-22T14:25:08.370Z,168
2018-11-22T14:26:09.858Z,168
2018-11-22T14:27:11.256Z,168
2018-11-22T14:28:12.735Z,164
2018-11-22T14:29:14.136Z,156
2018-11-22T14:30:15.616Z,144
2018-11-22T14:31:17.015Z,140
2018-11-22T14:32:18.496Z,136
2018-11-22T14:33:19.894Z,140
2018-11-22T14:34:21.379Z,136
2018-11-22T14:35:22.779Z,128
2018-11-22T14:36:24.258Z,124
2018-11-22T14:37:25.662Z,124